Hovedside
METAR-TAF:

METAR-TAF

Lufthavner :

Joensuu, Finland

Joensuu lufthavn

breddegrad: 62-40N, lengdegrad: 029-38E, høyde over havet: 119 m

Gjeldene værobservasjon

Denne rapporten ble laget for 14 minutter siden, klokken 21:50 UTC
Vind 3 kt fra Sør-sørøst
Temperatur 17°C
Luftfuktighet 100%
Trykk 1012 hPa
Sikt: 9000 m
Brutte skyer i en høyde av 500 ft
Brutte skyer i en høyde av 11800 ft

METAR: EFJO 182150Z AUTO 15003KT 9000 BKN005 BKN118 17/17 Q1012

Tid: 01:04 (22:04 UTC)

Varsel

Denne rapporten ble laget for 1 time og 27 minutter siden, klokken 20:37 UTC
Varsel gyldig fra 18. klokken 21 UTC til 18. klokken 23 UTC
Vind 5 kt fra Sør
Sikt 10 km eller mer
Brutte skyer i en høyde av 400 ft
Sannsynlighet 40%
fra 18. klokken 21 UTC til 18. klokken 23 UTC
Sikt: 4000 m
Få skyer i en høyde av 600 ft
Spredte skyer i en høyde av 2000 ft, Bygeskyer.
dis

TAF: EFJO 182037Z 1821/1823 19005KT 9999 BKN004 PROB40 1821/1823 4000 BR FEW006 SCT020CB

Værobservasjoner og værvarsel for over 4000 flyplasser (METAR- og TAF-rapporter).

Tilgjengelige stasjoner er representert av de røde og gule prikkene på kartet.

Hold musepekeren over prikken for å se navnet på stasjonen.

Klikk så for å se værobservasjoner og -varsler.

For å forandre kartet kan du klikke på den grønne knappen med svart kryss for å zoome inn, på den grønne knappen med strek for å zoome ut, eller på de grønne pilene for å se tilstøtende kart.


METAR-TAF: